M I D A S
Marine Information and Data Acquisition System
Tripno 1547 of the Zeeleeuw from 2008-03-07 07:16:49 to 2008-03-07 12:44:20
Back to CruiseResearch ActivitiesStationsMapUnderway DataData graphs

EquipmentUnitsComment
TimeDGPSUTC
LatitudeDGPSDM.mWGS84
LongitudeDGPSDM.mWGS84
TemperatureSBE03/SBE38deg celciusITS90
ConductivitySBE21S/mITS90
SalinitySBE21 Practical Salinity Units
ChlorophylAChelsea fluorimeterg/lCalibrated in Aceton
Missing or incorrect values are displayed as -999
Sea surface data collected by the RV Zeeleeuw from 2008-03-07 07:19:05 to 2008-03-07 12:52:52
Time Latitude Longitude Temperature Conductivity Salinity ChlorophylA
2008-03-07 07:20:10 51°13.68 2°55.891 15.0562 1.064203 6.691172 -1.766697
2008-03-07 07:21:10 51°13.689 2°55.8 15.06 1.0641 6.690835 -1.766697
2008-03-07 07:22:10 51°13.685 2°55.74 15.063 1.063997 6.69086 -1.766697
2008-03-07 07:23:10 51°13.697 2°55.74 15.0659 1.063894 6.690764 -1.766697
2008-03-07 07:24:10 51°13.746 2°55.709 15.0692 1.063791 6.690186 -1.801521
2008-03-07 07:25:10 51°13.842 2°55.622 15.0724 1.063688 6.690211 -1.766697
2008-03-07 07:26:10 51°13.978 2°55.519 15.0755 1.063585 6.689994 -1.766697
2008-03-07 07:27:10 51°14.126 2°55.406 15.0789 1.063481 6.689416 -1.766697
2008-03-07 07:28:10 51°14.261 2°55.269 15.084 1.063378 6.6892 -1.801521
2008-03-07 07:29:10 51°14.37 2°55.068 15.0884 1.063275 6.688742 -1.766697
2008-03-07 07:30:10 51°14.486 2°54.83 15.0915 1.063172 6.688646 -1.766697
2008-03-07 07:31:10 51°14.654 2°54.663 15.0951 1.063069 6.688068 -1.766697
2008-03-07 07:32:10 51°14.849 2°54.673 15.1001 1.062966 6.687489 -1.766697
2008-03-07 07:33:10 51°15.041 2°54.705 15.1047 1.062863 6.687635 -1.766697
2008-03-07 07:34:10 51°15.228 2°54.729 15.1089 1.06276 6.687539 -1.766697
2008-03-07 07:35:10 51°15.417 2°54.769 15.112 1.062657 6.687564 -1.766697
2008-03-07 07:36:10 51°15.607 2°54.824 15.1158 1.062554 6.687226 -1.766697
2008-03-07 07:37:10 51°15.783 2°54.933 15.1183 1.062451 6.686527 -1.766697
2008-03-07 07:38:10 51°15.897 2°55.163 15.1213 1.062348 6.686431 -1.766697
2008-03-07 07:39:10 51°15.986 2°55.427 15.126 1.062348 6.687397 -1.801521
2008-03-07 07:40:10 51°16.079 2°55.687 15.1315 1.062245 6.686939 -1.766697
2008-03-07 07:41:10 51°16.161 2°55.956 15.137 1.062142 6.68636 -1.766697
2008-03-07 07:42:10 51°16.25 2°56.219 15.1426 1.062142 6.686722 -1.766697
2008-03-07 07:43:10 51°16.338 2°56.484 15.1499 1.062038 6.686023 -1.766697
2008-03-07 07:44:10 51°16.427 2°56.749 15.1559 1.061935 6.685806 -1.766697
2008-03-07 07:45:10 51°16.514 2°57.017 15.1628 1.061832 6.685469 -1.766697
2008-03-07 07:46:10 51°16.605 2°57.281 15.17 1.061832 6.685831 -1.766697
2008-03-07 07:47:10 51°16.694 2°57.548 15.1787 1.061729 6.685252 -1.766697
2008-03-07 07:48:10 51°16.787 2°57.813 15.1872 1.061729 6.685131 -1.766697
2008-03-07 07:49:10 51°16.875 2°58.082 15.1967 1.061626 6.684552 -1.801521
2008-03-07 07:50:10 51°16.964 2°58.352 15.2051 1.061523 6.684094 -1.766697
2008-03-07 07:51:10 51°17.059 2°58.616 15.2107 1.061523 6.684456 -1.766697
2008-03-07 07:52:10 51°17.147 2°58.885 15.2155 1.06142 6.684239 -1.766697
2008-03-07 07:53:10 51°17.238 2°59.154 15.2211 1.06142 6.684481 -1.801521
2008-03-07 07:54:10 51°17.327 2°59.412 15.2254 1.061317 6.684143 -1.766697
2008-03-07 07:55:10 51°17.406 2°59.637 15.2298 1.061214 6.683927 -1.766697
2008-03-07 07:56:10 51°17.474 2°59.832 15.2345 1.061214 6.68453 -1.766697
2008-03-07 07:57:10 51°17.539 3°0.024 15.24 1.061111 6.684193 -1.766697
2008-03-07 07:58:10 51°17.605 3°0.216 15.2458 1.061008 6.683976 -1.766697
2008-03-07 07:59:10 51°17.671 3°0.409 15.2515 1.060905 6.683638 -1.766697
2008-03-07 08:00:10 51°17.737 3°0.602 15.2578 1.060802 6.68318 -1.766697
2008-03-07 08:01:10 51°17.803 3°0.793 15.2641 1.060802 6.683542 -1.766697
2008-03-07 08:02:10 51°17.862 3°0.971 15.2711 1.060698 6.682963 -1.766697
2008-03-07 08:03:10 51°17.916 3°1.131 15.277 1.060595 6.682625 -1.766697
2008-03-07 08:04:10 51°17.968 3°1.289 15.2839 1.060595 6.682746 -1.766697
2008-03-07 08:05:10 51°18.02 3°1.445 15.2906 1.060492 6.682408 -1.766697
2008-03-07 08:06:10 51°18.073 3°1.601 15.2965 1.060389 6.682071 -1.766697
2008-03-07 08:07:10 51°18.117 3°1.741 15.3027 1.060389 6.682675 -1.766697
2008-03-07 08:08:10 51°18.143 3°1.833 15.3092 1.060286 6.682458 -1.766697
2008-03-07 08:09:10 51°18.164 3°1.901 15.3159 1.060286 6.68282 -1.766697
2008-03-07 08:10:10 51°18.183 3°1.96 15.3227 1.060183 6.682241 -1.766697
2008-03-07 08:11:10 51°18.208 3°2.031 15.3315 1.060183 6.682362 -1.766697
2008-03-07 08:12:10 51°18.237 3°2.112 15.3421 1.06008 6.682024 -1.766697
2008-03-07 08:13:10 51°18.268 3°2.198 15.3545 1.06008 6.682145 -1.801521
2008-03-07 08:14:10 51°18.321 3°2.342 15.3662 1.059977 6.681686 -1.766697
2008-03-07 08:15:10 51°18.383 3°2.523 15.3779 1.059874 6.681348 -1.766697
2008-03-07 08:16:10 51°18.426 3°2.723 15.3895 1.059874 6.681469 -1.766697
2008-03-07 08:17:10 51°18.456 3°2.922 15.4009 1.059874 6.68159 -1.766697
2008-03-07 08:18:10 51°18.497 3°3.116 15.4112 1.059977 6.678667 -1.766697
2008-03-07 08:19:10 51°18.547 3°3.305 15.422 1.06008 6.679729 -1.766697
2008-03-07 08:20:10 51°18.595 3°3.492 15.4331 1.060183 6.681033 -1.766697
2008-03-07 08:21:10 51°18.627 3°3.666 15.4442 1.060183 6.681395 -1.766697
2008-03-07 08:22:10 51°18.605 3°3.789 15.456 1.06008 6.68142 -1.766697
2008-03-07 08:23:10 51°18.591 3°3.822 15.4673 1.059977 6.681082 -1.766697
2008-03-07 08:24:10 51°18.59 3°3.812 15.4798 1.059977 6.681444 -1.766697
2008-03-07 08:25:10 51°18.589 3°3.801 15.4922 1.059874 6.680865 -1.766697
2008-03-07 08:26:10 51°18.589 3°3.789 15.5051 1.059874 6.681469 -1.766697
2008-03-07 08:27:10 51°18.59 3°3.777 15.5179 1.059771 6.681131 -1.766697
2008-03-07 08:28:10 51°18.591 3°3.765 15.5308 1.059668 6.680793 -1.766697
2008-03-07 08:29:10 51°18.591 3°3.752 15.5434 1.059565 6.680455 -1.766697
2008-03-07 08:30:10 51°18.591 3°3.741 15.5562 1.059565 6.680697 -1.766697
2008-03-07 08:31:10 51°18.59 3°3.731 15.569 1.059462 6.680238 -1.766697
2008-03-07 08:32:10 51°18.589 3°3.724 15.5818 1.059358 6.679659 -1.766697
2008-03-07 08:33:10 51°18.588 3°3.717 15.5946 1.059358 6.679659 -1.766697
2008-03-07 08:34:10 51°18.587 3°3.71 15.608 1.059255 6.678837 -1.766697
2008-03-07 08:35:10 51°18.585 3°3.704 15.6211 1.059255 6.678958 -1.766697
2008-03-07 08:36:10 51°18.582 3°3.698 15.6347 1.059255 6.678958 -1.766697
2008-03-07 08:37:10 51°18.581 3°3.691 15.6486 1.059255 6.679079 -1.766697
2008-03-07 08:38:10 51°18.579 3°3.684 15.6627 1.059152 6.67862 -1.766697
2008-03-07 08:39:10 51°18.577 3°3.679 15.6767 1.059049 6.678161 -1.766697
2008-03-07 08:40:10 51°18.577 3°3.673 15.6902 1.059049 6.678524 -1.766697
2008-03-07 08:41:10 51°18.576 3°3.669 15.7036 1.058946 6.678186 -1.766697
2008-03-07 08:42:10 51°18.576 3°3.666 15.7181 1.058946 6.67879 -1.766697
2008-03-07 08:43:10 51°18.575 3°3.661 15.7331 1.058843 6.678573 -1.766697
2008-03-07 08:44:10 51°18.576 3°3.657 15.7486 1.05874 6.678476 -1.766697
2008-03-07 08:45:10 51°18.577 3°3.653 15.7638 1.058637 6.678501 -1.801521
2008-03-07 08:46:10 51°18.578 3°3.649 15.7795 1.058534 6.678284 -1.766697
2008-03-07 08:47:10 51°18.577 3°3.657 15.7945 1.058431 6.677945 -1.766697
2008-03-07 08:48:10 51°18.573 3°3.68 15.8098 1.058328 6.677728 -1.766697
2008-03-07 08:49:10 51°18.573 3°3.708 15.8245 1.058225 6.677632 -1.766697
2008-03-07 08:50:10 51°18.572 3°3.731 15.8394 1.058122 6.677535 -1.766697
2008-03-07 08:51:10 51°18.57 3°3.745 15.854 1.058018 6.677197 -1.766697
2008-03-07 08:52:10 51°18.567 3°3.753 15.8694 1.058018 6.67756 -1.766697
2008-03-07 08:53:10 51°18.564 3°3.754 15.8849 1.057915 6.677222 -1.766697
2008-03-07 08:54:10 51°18.56 3°3.753 15.9001 1.057812 6.677004 -1.766697
2008-03-07 08:55:10 51°18.557 3°3.75 15.9148 1.057812 6.67773 -1.766697
2008-03-07 08:56:10 51°18.556 3°3.746 15.9297 1.057709 6.677876 -1.766697
2008-03-07 08:57:10 51°18.558 3°3.74 15.9447 1.057709 6.678602 -1.766697
2008-03-07 08:58:10 51°18.561 3°3.735 15.9591 1.057606 6.678869 -1.766697
2008-03-07 08:59:10 51°18.567 3°3.778 15.9738 1.057503 6.678289 -1.766697
2008-03-07 09:00:10 51°18.614 3°3.793 15.9883 1.057503 6.67841 -1.766697
2008-03-07 09:01:10 51°18.646 3°3.712 16.0016 1.0574 6.67795 -1.766697
2008-03-07 09:02:10 51°18.649 3°3.562 16.0156 1.057297 6.678218 -1.766697
2008-03-07 09:03:10 51°18.627 3°3.354 16.0289 1.057194 6.678364 -1.766697
2008-03-07 09:04:10 51°18.585 3°3.138 16.0405 1.057091 6.678025 -1.766697
2008-03-07 09:05:10 51°18.531 3°2.923 16.0508 1.056988 6.677687 -1.766697
2008-03-07 09:06:10 51°18.477 3°2.709 16.0612 1.056885 6.678439 -1.766697
2008-03-07 09:07:10 51°18.425 3°2.493 16.0723 1.056885 6.679651 -1.766697
2008-03-07 09:08:10 51°18.373 3°2.277 16.0832 1.056782 6.679312 -1.766697
2008-03-07 09:09:10 51°18.321 3°2.061 16.0937 1.056679 6.679337 -1.766697
2008-03-07 09:10:10 51°18.269 3°1.847 16.1043 1.056576 6.679484 -1.766697
2008-03-07 09:11:10 51°18.208 3°1.641 16.1145 1.056576 6.68009 -1.766697
2008-03-07 09:12:10 51°18.149 3°1.437 16.1258 1.056473 6.679994 -1.766697
2008-03-07 09:13:10 51°18.09 3°1.235 16.1364 1.056369 6.679898 -1.766697
2008-03-07 09:14:10 51°18.03 3°1.029 16.1468 1.056266 6.680045 -1.766697
2008-03-07 09:15:10 51°17.97 3°0.825 16.1567 1.056163 6.679828 -1.766697
2008-03-07 09:16:10 51°17.911 3°0.619 16.1678 1.056163 6.680192 -1.766697
2008-03-07 09:17:10 51°17.852 3°0.412 16.1786 1.05606 6.679732 -1.766697
2008-03-07 09:18:10 51°17.785 3°0.188 16.1895 1.055957 6.679272 -1.766697
2008-03-07 09:19:10 51°17.717 2°59.96 16.1995 1.055854 6.679055 -1.766697
2008-03-07 09:20:10 51°17.65 2°59.73 16.2093 1.055854 6.679419 -1.766697
2008-03-07 09:21:10 51°17.583 2°59.501 16.2204 1.055751 6.678959 -1.766697
2008-03-07 09:22:10 51°17.516 2°59.275 16.2308 1.055648 6.678741 -1.766697
2008-03-07 09:23:10 51°17.45 2°59.049 16.2419 1.055648 6.679106 -1.766697
2008-03-07 09:24:10 51°17.383 2°58.823 16.2523 1.055545 6.678767 -1.766697
2008-03-07 09:25:10 51°17.316 2°58.599 16.2627 1.055442 6.678428 -1.766697
2008-03-07 09:26:10 51°17.249 2°58.374 16.2729 1.055442 6.678914 -1.766697
2008-03-07 09:27:10 51°17.184 2°58.149 16.2837 1.055339 6.678575 -1.766697
2008-03-07 09:28:10 51°17.143 2°57.884 16.2951 1.055236 6.678358 -1.766697
2008-03-07 09:29:10 51°17.098 2°57.578 16.3051 1.055133 6.677897 -1.766697
2008-03-07 09:30:10 51°17.071 2°57.26 16.3145 1.055133 6.678504 -1.766697
2008-03-07 09:31:10 51°17.06 2°56.937 16.3243 1.055029 6.678287 -1.766697
2008-03-07 09:32:10 51°17.043 2°56.613 16.3345 1.054926 6.677948 -1.766697
2008-03-07 09:33:10 51°17.023 2°56.29 16.3445 1.054926 6.678434 -1.766697
2008-03-07 09:34:10 51°17.004 2°55.965 16.3537 1.054823 6.678095 -1.766697
2008-03-07 09:35:10 51°16.985 2°55.64 16.3622 1.05472 6.677878 -1.766697
2008-03-07 09:36:10 51°16.966 2°55.315 16.3712 1.05472 6.678121 -1.766697
2008-03-07 09:37:10 51°16.948 2°54.991 16.3807 1.054617 6.677782 -1.766697
2008-03-07 09:38:10 51°16.929 2°54.668 16.3902 1.054514 6.677564 -1.766697
2008-03-07 09:39:10 51°16.91 2°54.343 16.3988 1.054514 6.677929 -1.766697
2008-03-07 09:40:10 51°16.892 2°54.018 16.4074 1.054411 6.67759 -1.766697
2008-03-07 09:41:10 51°16.872 2°53.693 16.4158 1.054411 6.677955 -1.766697
2008-03-07 09:42:10 51°16.885 2°53.37 16.4251 1.054308 6.677737 -1.766697
2008-03-07 09:43:10 51°16.926 2°53.057 16.4342 1.054205 6.67752 -1.766697
2008-03-07 09:44:10 51°17.036 2°52.79 16.4435 1.054205 6.677763 -1.766697
2008-03-07 09:45:10 51°17.21 2°52.651 16.4525 1.054102 6.677545 -1.766697
2008-03-07 09:46:10 51°17.405 2°52.58 16.4622 1.053999 6.677328 -1.766697
2008-03-07 09:47:10 51°17.6 2°52.512 16.4729 1.053999 6.677936 -1.766697
2008-03-07 09:48:10 51°17.797 2°52.458 16.4836 1.053896 6.67784 -1.801521
2008-03-07 09:49:10 51°17.99 2°52.386 16.4942 1.053896 6.678205 -1.766697
2008-03-07 09:50:10 51°18.185 2°52.317 16.5039 1.053793 6.678231 -1.801521
2008-03-07 09:51:10 51°18.379 2°52.258 16.5135 1.053793 6.678717 -1.766697
2008-03-07 09:52:10 51°18.575 2°52.202 16.5236 1.05369 6.678378 -1.766697
2008-03-07 09:53:10 51°18.771 2°52.15 16.5338 1.05369 6.678743 -1.766697
2008-03-07 09:54:10 51°18.967 2°52.12 16.5442 1.053587 6.678161 -1.766697
2008-03-07 09:55:10 51°19.13 2°52.11 16.5536 1.053483 6.678065 -1.766697
2008-03-07 09:56:10 51°19.221 2°52.142 16.5637 1.053483 6.67843 -1.766697
2008-03-07 09:57:10 51°19.264 2°52.191 16.5735 1.05338 6.677969 -1.766697
2008-03-07 09:58:10 51°19.267 2°52.198 16.5838 1.053277 6.677508 -1.766697
2008-03-07 09:59:10 51°19.27 2°52.216 16.5952 1.053277 6.677508 -1.766697
2008-03-07 10:00:10 51°19.269 2°52.249 16.6053 1.053174 6.677047 -1.766697
2008-03-07 10:01:10 51°19.273 2°52.292 16.6164 1.053071 6.676343 -1.766697
2008-03-07 10:02:10 51°19.277 2°52.332 16.6288 1.053071 6.67683 -1.766697
2008-03-07 10:03:10 51°19.278 2°52.365 16.6405 1.052968 6.676491 -1.766697
2008-03-07 10:04:10 51°19.275 2°52.393 16.6527 1.052968 6.676491 -1.766697
2008-03-07 10:05:10 51°19.272 2°52.414 16.6643 1.052968 6.676734 -1.766697
2008-03-07 10:06:10 51°19.272 2°52.434 16.676 1.052865 6.67603 -1.766697
2008-03-07 10:07:10 51°19.264 2°52.476 16.6873 1.052865 6.67603 -1.801521
2008-03-07 10:08:10 51°19.287 2°52.553 16.6994 1.052865 6.67603 -1.766697
2008-03-07 10:09:10 51°19.342 2°52.528 16.7107 1.052762 6.675204 -1.766697
2008-03-07 10:10:10 51°19.346 2°52.436 16.7217 1.052762 6.67496 -1.766697
2008-03-07 10:11:10 51°19.326 2°52.317 16.731 1.052762 6.675447 -1.766697
2008-03-07 10:12:10 51°19.298 2°52.211 16.7409 1.052762 6.675934 -1.766697
2008-03-07 10:13:10 51°19.295 2°52.2 16.7509 1.052659 6.675229 -1.766697
2008-03-07 10:14:10 51°19.304 2°52.222 16.76 1.052659 6.675716 -1.766697
2008-03-07 10:15:10 51°19.311 2°52.247 16.769 1.052556 6.675377 -1.766697
2008-03-07 10:16:10 51°19.316 2°52.272 16.7765 1.052556 6.676107 -1.766697
2008-03-07 10:17:10 51°19.322 2°52.299 16.7849 1.052556 6.676594 -1.766697
2008-03-07 10:18:10 51°19.328 2°52.325 16.7931 1.052453 6.676377 -1.766697
2008-03-07 10:19:10 51°19.336 2°52.353 16.8008 1.052453 6.676864 -1.766697
2008-03-07 10:20:10 51°19.343 2°52.379 16.8082 1.05235 6.676524 -1.766697
2008-03-07 10:21:10 51°19.352 2°52.406 16.8151 1.05235 6.67689 -1.766697
2008-03-07 10:22:10 51°19.361 2°52.435 16.8227 1.05235 6.677012 -1.766697
2008-03-07 10:23:11 51°19.37 2°52.463 16.8305 1.052247 6.676672 -1.766697
2008-03-07 10:24:10 51°19.379 2°52.491 16.8381 1.052247 6.676916 -1.766697
2008-03-07 10:25:10 51°19.39 2°52.52 16.8447 1.052144 6.676455 -1.766697
2008-03-07 10:26:10 51°19.401 2°52.55 16.8514 1.052144 6.67682 -1.766697
2008-03-07 10:27:10 51°19.412 2°52.584 16.8586 1.05204 6.676481 -1.766697
2008-03-07 10:28:10 51°19.423 2°52.618 16.866 1.05204 6.67709 -1.766697
2008-03-07 10:29:10 51°19.435 2°52.652 16.873 1.051937 6.676507 -1.766697
2008-03-07 10:30:11 51°19.452 2°52.678 16.879 1.051937 6.67675 -1.766697
2008-03-07 10:31:10 51°19.471 2°52.654 16.8851 1.051834 6.676289 -1.766697
2008-03-07 10:32:11 51°19.455 2°52.606 16.8911 1.051834 6.676167 -1.766697
2008-03-07 10:33:10 51°19.416 2°52.56 16.8984 1.051731 6.67595 -1.766697
2008-03-07 10:34:10 51°19.382 2°52.512 16.9048 1.051731 6.676437 -1.766697
2008-03-07 10:35:10 51°19.345 2°52.423 16.9109 1.051628 6.675976 -1.766697
2008-03-07 10:36:10 51°19.305 2°52.308 16.9176 1.051628 6.676341 -1.766697
2008-03-07 10:37:10 51°19.281 2°52.244 16.9238 1.051525 6.676124 -1.766697
2008-03-07 10:38:10 51°19.276 2°52.229 16.9312 1.051525 6.67649 -1.766697
2008-03-07 10:39:11 51°19.285 2°52.239 16.9376 1.051422 6.675906 -1.766697
2008-03-07 10:40:10 51°19.3 2°52.257 16.9432 1.051422 6.676028 -1.766697
2008-03-07 10:41:11 51°19.321 2°52.272 16.9487 1.051422 6.676272 -1.766697
2008-03-07 10:42:10 51°19.34 2°52.283 16.9539 1.051319 6.675932 -1.766697
2008-03-07 10:43:10 51°19.354 2°52.287 16.9599 1.051319 6.67642 -1.766697
2008-03-07 10:44:10 51°19.361 2°52.286 16.9659 1.051216 6.67608 -1.766697
2008-03-07 10:45:10 51°19.358 2°52.271 16.9713 1.051216 6.676446 -1.766697
2008-03-07 10:46:11 51°19.356 2°52.257 16.9766 1.051216 6.67669 -1.766697
2008-03-07 10:47:10 51°19.363 2°52.254 16.9821 1.051113 6.676107 -1.766697
2008-03-07 10:48:11 51°19.37 2°52.257 16.9885 1.051113 6.676229 -1.766697
2008-03-07 10:49:10 51°19.369 2°52.266 16.995 1.051113 6.676229 -1.766697
2008-03-07 10:50:11 51°19.357 2°52.271 17.0019 1.05101 6.675767 -1.766697
2008-03-07 10:51:10 51°19.34 2°52.273 17.0075 1.05101 6.676255 -1.766697
2008-03-07 10:52:10 51°19.323 2°52.282 17.0144 1.05101 6.676133 -1.766697
2008-03-07 10:53:10 51°19.315 2°52.284 17.0215 1.050907 6.675671 -1.766697
2008-03-07 10:54:10 51°19.317 2°52.287 17.0287 1.050907 6.675915 -1.766697
2008-03-07 10:55:11 51°19.321 2°52.284 17.0349 1.050907 6.675915 -1.766697
2008-03-07 10:56:10 51°19.324 2°52.289 17.0408 1.050804 6.675454 -1.766697
2008-03-07 10:57:11 51°19.325 2°52.298 17.0473 1.050804 6.675576 -1.766697
2008-03-07 10:58:10 51°19.322 2°52.316 17.0542 1.050804 6.67582 -1.766697
2008-03-07 10:59:11 51°19.315 2°52.336 17.0603 1.050804 6.675942 -1.766697
2008-03-07 11:00:10 51°19.314 2°52.347 17.0669 1.050701 6.67548 -1.766697
2008-03-07 11:01:10 51°19.319 2°52.351 17.0727 1.050701 6.675602 -1.766697
2008-03-07 11:02:10 51°19.323 2°52.351 17.0786 1.050701 6.675602 -1.766697
2008-03-07 11:03:10 51°19.319 2°52.347 17.0849 1.050701 6.675846 -1.766697
2008-03-07 11:04:11 51°19.324 2°52.332 17.0912 1.050597 6.675384 -1.766697
2008-03-07 11:05:10 51°19.329 2°52.315 17.0968 1.050597 6.675506 -1.801521
2008-03-07 11:06:11 51°19.331 2°52.295 17.1021 1.050597 6.675628 -1.766697
2008-03-07 11:07:10 51°19.33 2°52.275 17.1076 1.050597 6.67575 -1.766697
2008-03-07 11:08:11 51°19.325 2°52.26 17.1131 1.050597 6.675872 -1.766697
2008-03-07 11:09:10 51°19.324 2°52.256 17.1192 1.050597 6.676116 -1.766697
2008-03-07 11:10:10 51°19.337 2°52.264 17.1255 1.050494 6.675533 -1.766697
2008-03-07 11:11:11 51°19.348 2°52.276 17.1313 1.050494 6.675655 -1.766697
2008-03-07 11:12:10 51°19.349 2°52.269 17.1365 1.050494 6.675899 -1.766697
2008-03-07 11:13:11 51°19.344 2°52.243 17.143 1.050494 6.676021 -1.766697
2008-03-07 11:14:10 51°19.328 2°52.22 17.1493 1.050494 6.676143 -1.766697
2008-03-07 11:15:11 51°19.327 2°52.23 17.1549 1.050391 6.675681 -1.766697
2008-03-07 11:16:10 51°19.349 2°52.273 17.1602 1.050391 6.676047 -1.766697
2008-03-07 11:17:11 51°19.377 2°52.332 17.1653 1.050288 6.675463 -1.801521
2008-03-07 11:18:10 51°19.403 2°52.394 17.1712 1.050288 6.675585 -1.766697
2008-03-07 11:19:10 51°19.429 2°52.457 17.1758 1.050288 6.67583 -1.766697
2008-03-07 11:20:11 51°19.455 2°52.523 17.1802 1.050288 6.676196 -1.766697
2008-03-07 11:21:10 51°19.482 2°52.587 17.1837 1.050288 6.67644 -1.766697
2008-03-07 11:22:11 51°19.51 2°52.652 17.1871 1.050288 6.676562 -1.766697
2008-03-07 11:23:10 51°19.546 2°52.705 17.1904 1.050185 6.676222 -1.766697
2008-03-07 11:24:11 51°19.583 2°52.69 17.1931 1.050288 6.676929 -1.766697
2008-03-07 11:25:10 51°19.56 2°52.637 17.1973 1.050185 6.6761 -1.766697
2008-03-07 11:26:11 51°19.564 2°52.568 17.2003 1.050185 6.677077 -1.766697
2008-03-07 11:27:11 51°19.587 2°52.488 17.2038 1.050185 6.677322 -1.766697
2008-03-07 11:28:10 51°19.629 2°52.418 17.2078 1.050082 6.676982 -1.766697
2008-03-07 11:29:11 51°19.685 2°52.373 17.2121 1.050082 6.677104 -1.766697
2008-03-07 11:30:10 51°19.727 2°52.339 17.216 1.049979 6.676398 -1.766697
2008-03-07 11:31:11 51°19.731 2°52.275 17.2193 1.049979 6.676398 -1.766697
2008-03-07 11:32:10 51°19.704 2°52.201 17.2235 1.049979 6.676886 -1.801521
2008-03-07 11:33:11 51°19.676 2°52.148 17.228 1.049876 6.676424 -1.766697
2008-03-07 11:34:11 51°19.647 2°52.093 17.2323 1.049876 6.676669 -1.766697
2008-03-07 11:35:11 51°19.616 2°52.029 17.237 1.049773 6.676207 -1.766697
2008-03-07 11:36:11 51°19.583 2°51.965 17.2408 1.049773 6.676451 -1.766697
2008-03-07 11:37:11 51°19.554 2°51.903 17.2446 1.049773 6.676695 -1.766697
2008-03-07 11:38:11 51°19.522 2°51.837 17.2488 1.04967 6.676355 -1.766697
2008-03-07 11:39:11 51°19.491 2°51.772 17.2544 1.04967 6.676722 -1.766697
2008-03-07 11:40:11 51°19.461 2°51.704 17.2591 1.04967 6.676967 -1.766697
2008-03-07 11:41:11 51°19.429 2°51.634 17.2631 1.049567 6.676749 -1.766697
2008-03-07 11:42:11 51°19.4 2°51.574 17.2674 1.049567 6.677116 -1.766697
2008-03-07 11:43:11 51°19.371 2°51.511 17.2718 1.049464 6.676531 -1.766697
2008-03-07 11:44:11 51°19.339 2°51.444 17.2766 1.049464 6.676653 -1.766697
2008-03-07 11:45:11 51°19.307 2°51.377 17.281 1.049361 6.675947 -1.801521
2008-03-07 11:46:11 51°19.277 2°51.308 17.2852 1.049361 6.676069 -1.766697
2008-03-07 11:47:11 51°19.249 2°51.239 17.2893 1.049258 6.675607 -1.766697
2008-03-07 11:48:11 51°19.224 2°51.182 17.294 1.049155 6.6749 -1.801521
2008-03-07 11:49:11 51°19.204 2°51.13 17.2984 1.049155 6.675144 -1.766697
2008-03-07 11:50:11 51°19.18 2°51.073 17.3028 1.049155 6.675267 -1.766697
2008-03-07 11:51:11 51°19.155 2°51.017 17.3067 1.049051 6.674927 -1.801521
2008-03-07 11:52:11 51°19.13 2°50.955 17.3114 1.049051 6.674927 -1.766697
2008-03-07 11:53:11 51°19.104 2°50.89 17.3164 1.049051 6.675171 -1.766697
2008-03-07 11:54:11 51°19.077 2°50.829 17.3217 1.049051 6.675538 -1.766697
2008-03-07 11:55:11 51°19.044 2°50.771 17.3263 1.048948 6.675076 -1.766697
2008-03-07 11:56:11 51°19.01 2°50.713 17.3314 1.048948 6.675565 -1.766697
2008-03-07 11:57:11 51°18.974 2°50.651 17.3363 1.048948 6.675687 -1.766697
2008-03-07 11:58:11 51°18.936 2°50.589 17.3412 1.048948 6.675932 -1.766697
2008-03-07 11:59:12 51°18.903 2°50.528 17.3469 1.048948 6.676054 -1.766697
2008-03-07 12:00:11 51°18.878 2°50.492 17.3519 1.048845 6.675347 -1.766697
2008-03-07 12:01:11 51°18.869 2°50.462 17.3563 1.048845 6.675592 -1.766697
2008-03-07 12:02:11 51°18.9 2°50.428 17.3614 1.048845 6.675958 -1.766697
2008-03-07 12:03:11 51°18.964 2°50.454 17.3664 1.048845 6.676325 -1.766697
2008-03-07 12:04:11 51°19.01 2°50.491 17.3709 1.048845 6.67657 -1.766697
2008-03-07 12:05:11 51°19.046 2°50.529 17.3745 1.048845 6.677182 -1.766697
2008-03-07 12:06:11 51°19.078 2°50.568 17.3771 1.048742 6.677331 -1.731873
2008-03-07 12:07:11 51°19.106 2°50.61 17.3797 1.048639 6.677358 -1.766697
2008-03-07 12:08:11 51°19.132 2°50.657 17.383 1.048639 6.67846 -1.766697
2008-03-07 12:09:11 51°19.16 2°50.703 17.3859 1.048536 6.678365 -1.766697
2008-03-07 12:10:11 51°19.222 2°50.75 17.3885 1.04833 6.67744 -1.766697
2008-03-07 12:11:11 51°19.248 2°50.895 17.3912 1.04833 6.678665 -1.766697
2008-03-07 12:12:11 51°19.189 2°50.973 17.395 1.048227 6.67759 -1.801521
2008-03-07 12:13:11 51°19.079 2°51.005 17.3997 1.048227 6.67857 -1.766697
2008-03-07 12:14:11 51°18.952 2°51.061 17.4054 1.04833 6.679768 -1.766697
2008-03-07 12:15:11 51°18.816 2°51.141 17.4109 1.048227 6.679182 -1.801521
2008-03-07 12:16:11 51°18.682 2°51.221 17.4168 1.048227 6.679305 -1.766697
2008-03-07 12:17:11 51°18.548 2°51.314 17.4224 1.048124 6.678475 -1.766697
2008-03-07 12:18:11 51°18.416 2°51.408 17.4285 1.048124 6.678475 -1.766697
2008-03-07 12:19:11 51°18.283 2°51.501 17.4342 1.048021 6.677889 -1.766697
2008-03-07 12:20:11 51°18.15 2°51.591 17.4378 1.048021 6.678012 -1.801521
2008-03-07 12:21:11 51°18.016 2°51.68 17.4409 1.047918 6.677427 -1.766697
2008-03-07 12:22:12 51°17.879 2°51.771 17.4426 1.047815 6.676841 -1.801521
2008-03-07 12:23:11 51°17.746 2°51.869 17.4435 1.047918 6.677427 -1.766697
2008-03-07 12:24:12 51°17.607 2°51.981 17.4432 1.047815 6.676841 -1.766697
2008-03-07 12:25:11 51°17.469 2°52.086 17.4427 1.047815 6.676841 -1.766697
2008-03-07 12:26:11 51°17.323 2°52.195 17.4427 1.047712 6.676256 -1.766697
2008-03-07 12:27:11 51°17.169 2°52.306 17.445 1.047712 6.676501 -1.766697
2008-03-07 12:28:11 51°17.011 2°52.404 17.4501 1.047712 6.676501 -1.766697
2008-03-07 12:29:11 51°16.834 2°52.49 17.4552 1.047712 6.677114 -1.766697
2008-03-07 12:30:11 51°16.649 2°52.563 17.4605 1.047609 6.676283 -1.766697
2008-03-07 12:31:11 51°16.468 2°52.676 17.4665 1.047609 6.676528 -1.766697
2008-03-07 12:32:11 51°16.293 2°52.83 17.4716 1.047609 6.676896 -1.766697
2008-03-07 12:33:11 51°16.118 2°52.983 17.4773 1.047609 6.676896 -1.766697
2008-03-07 12:34:11 51°15.949 2°53.15 17.4824 1.047609 6.676773 -1.766697
2008-03-07 12:35:11 51°15.778 2°53.318 17.4876 1.047609 6.677264 -1.801521
2008-03-07 12:36:11 51°15.608 2°53.486 17.4931 1.047505 6.676188 -1.766697
2008-03-07 12:37:11 51°15.437 2°53.652 17.4984 1.047505 6.676188 -1.766697
2008-03-07 12:38:11 51°15.265 2°53.813 17.5038 1.047505 6.675943 -1.766697
2008-03-07 12:39:11 51°15.093 2°53.969 17.5095 1.047609 6.676651 -1.766697
2008-03-07 12:40:11 51°14.922 2°54.129 17.5149 1.047609 6.676283 -1.766697
2008-03-07 12:41:11 51°14.763 2°54.332 17.5203 1.047609 6.676406 -1.766697
2008-03-07 12:42:12 51°14.62 2°54.586 17.5262 1.047609 6.675916 -1.766697
2008-03-07 12:43:11 51°14.479 2°54.825 17.532 1.047609 6.676038 -1.766697
2008-03-07 12:44:11 51°14.352 2°55.097 17.5373 1.047608 6.675671 -1.766697
2008-03-07 12:45:11 51°14.218 2°55.317 17.5422 1.047712 6.676011 -1.766697
2008-03-07 12:46:11 51°14.09 2°55.436 17.5453 1.047712 6.675643 -1.766697
2008-03-07 12:47:11 51°13.973 2°55.522 17.5464 1.047815 6.675861 -1.766697
2008-03-07 12:48:11 51°13.865 2°55.604 17.5461 1.047815 6.675616 -1.766697
2008-03-07 12:49:12 51°13.773 2°55.686 17.5447 1.047918 6.676324 -1.766697
2008-03-07 12:50:12 51°13.713 2°55.781 17.5433 1.047918 6.676324 -1.766697
2008-03-07 12:51:12 51°13.679 2°55.879 17.5419 1.047918 6.676324 -1.766697
2008-03-07 12:52:12 51°13.667 2°55.943 17.5404 1.047918 6.676447 -1.766697